Time;durP1;ratioP1;P1;durP2;ratioP2;P2;SDS_P1;SDS_P2;PMS_P1;PMS_P2;Temp;Humidity;BMP_temperature;BMP_pressure;BME280_temperature;BME280_humidity;BME280_pressure;Samples;Min_cycle;Max_cycle;Signal;HPM_P1;HPM_P2
2023/03/06 00:06:59;;;;;;;28.70;26.00;;;;;;;-1.50;94.39;96898.11;106599;1287;23344;-87
2023/03/06 00:09:27;;;;;;;27.30;24.90;;;;;;;-1.52;94.95;96894.40;106517;1287;22541;-88
2023/03/06 00:11:55;;;;;;;26.40;24.00;;;;;;;-1.57;94.66;96892.33;106615;1287;22541;-88
2023/03/06 00:14:23;;;;;;;30.20;27.20;;;;;;;-1.59;94.59;96896.52;106642;1287;24229;-86
2023/03/06 00:16:57;;;;;;;31.10;28.20;;;;;;;-1.61;94.56;96895.77;106450;1287;22676;-86
2023/03/06 00:19:26;;;;;;;;;;;;;;;-1.62;94.48;96896.65;106616;1286;23396;-86
2023/03/06 00:21:54;;;;;;;27.50;24.80;;;;;;;-1.65;94.45;96896.02;106553;1287;22542;-86
2023/03/06 00:24:22;;;;;;;26.20;23.70;;;;;;;-1.62;94.54;96891.47;106587;1283;22549;-86
2023/03/06 00:26:50;;;;;;;33.50;30.30;;;;;;;-1.61;94.39;96890.02;106585;1286;24285;-87
2023/03/06 00:29:18;;;;;;;29.90;27.00;;;;;;;-1.58;94.31;96894.64;106877;1287;22686;-88
2023/03/06 00:31:46;;;;;;;30.40;27.70;;;;;;;-1.59;94.35;96894.20;106796;1287;22692;-88
2023/03/06 00:34:14;;;;;;;32.00;29.10;;;;;;;-1.59;94.35;96894.20;106586;1287;24230;-88
2023/03/06 00:36:43;;;;;;;33.70;30.50;;;;;;;-1.59;94.36;96895.83;106599;1287;22528;-88
2023/03/06 00:39:11;;;;;;;33.50;30.20;;;;;;;-1.58;94.36;96894.06;106615;1286;22751;-89
2023/03/06 00:41:39;;;;;;;30.40;27.60;;;;;;;-1.56;94.02;96896.44;106567;1286;22738;-87
2023/03/06 00:44:07;;;;;;;33.10;29.90;;;;;;;-1.56;93.89;96894.20;106559;1286;25399;-88
2023/03/06 00:46:35;;;;;;;32.40;29.40;;;;;;;-1.55;94.26;96892.41;106601;1286;24937;-87
2023/03/06 00:49:03;;;;;;;33.50;30.50;;;;;;;-1.58;94.04;96889.66;106576;1286;22605;-87
2023/03/06 00:51:31;;;;;;;36.70;33.50;;;;;;;-1.61;94.29;96886.36;106537;1286;22551;-88
2023/03/06 00:54:00;;;;;;;34.30;31.00;;;;;;;-1.64;94.12;96887.06;106729;1286;22538;-87
2023/03/06 00:56:28;;;;;;;30.60;27.60;;;;;;;-1.66;94.24;96884.65;106618;1286;25368;-87
2023/03/06 01:03:43;;;;;;;34.00;30.80;;;;;;;-1.70;94.17;96885.66;106623;1286;24287;-87
2023/03/06 01:06:11;;;;;;;33.70;30.50;;;;;;;-1.72;94.17;96885.05;106526;1287;22647;-84
2023/03/06 01:08:39;;;;;;;34.20;30.90;;;;;;;-1.73;94.34;96884.64;106455;1287;22672;-84
2023/03/06 01:11:07;;;;;;;32.80;29.80;;;;;;;-1.73;94.22;96887.38;106566;1286;22534;-86
2023/03/06 01:13:35;;;;;;;32.80;29.60;;;;;;;-1.71;94.22;96885.55;106358;1287;22560;-85
2023/03/06 01:16:06;;;;;;;33.20;30.00;;;;;;;-1.68;94.07;96889.02;106617;1286;22566;-85
2023/03/06 01:18:35;;;;;;;36.40;33.00;;;;;;;-1.67;94.11;96886.65;106570;1286;22599;-85
2023/03/06 01:21:04;;;;;;;39.30;35.70;;;;;;;-1.65;94.46;96881.92;106641;1265;22537;-86
2023/03/06 01:23:32;;;;;;;37.10;33.60;;;;;;;-1.64;94.45;96880.19;106564;1286;22636;-85
2023/03/06 01:26:01;;;;;;;36.60;33.10;;;;;;;-1.65;94.33;96882.71;106490;1287;24552;-85
2023/03/06 01:28:30;;;;;;;33.70;30.40;;;;;;;-1.63;94.38;96884.73;106576;1287;25366;-86
2023/03/06 01:31:03;;;;;;;32.50;29.40;;;;;;;-1.61;94.32;96888.73;106535;1286;25147;-85
2023/03/06 01:33:32;;;;;;;35.90;32.50;;;;;;;-1.65;94.66;96890.33;106609;1281;25282;-86
2023/03/06 01:36:10;;;;;;;35.40;32.20;;;;;;;-1.67;94.68;96891.63;106476;1286;22701;-86
2023/03/06 01:38:39;;;;;;;36.20;32.90;;;;;;;-1.71;94.58;96890.03;106560;1287;22601;-87
2023/03/06 01:41:09;;;;;;;32.70;29.60;;;;;;;-1.73;94.62;96885.84;107956;1286;22715;-87
2023/03/06 01:43:40;;;;;;;33.40;30.10;;;;;;;-1.72;94.73;96883.00;107966;1286;22575;-86
2023/03/06 01:46:29;;;;;;;31.90;29.00;;;;;;;-1.68;94.83;96881.79;107022;1286;22544;-86
2023/03/06 01:52:49;;;;;;;36.00;32.70;;;;;;;-1.64;94.89;96884.73;106625;1286;25668;-85
2023/03/06 01:59:27;;;;;;;34.50;31.10;;;;;;;-1.68;94.98;96882.94;106503;1281;22604;-86
2023/03/06 02:02:00;;;;;;;32.90;29.70;;;;;;;-1.63;94.93;96880.94;106659;1286;22703;-87
2023/03/06 02:04:29;;;;;;;35.60;32.40;;;;;;;-1.58;94.74;96881.02;107345;1286;22570;-86
2023/03/06 02:07:04;;;;;;;37.40;33.90;;;;;;;-1.56;94.93;96880.23;106456;1281;22615;-85
2023/03/06 02:09:36;;;;;;;37.50;34.10;;;;;;;-1.56;95.14;96875.58;106525;1281;24260;-86
2023/03/06 02:12:12;;;;;;;35.40;32.20;;;;;;;-1.59;95.28;96868.69;106568;1286;23287;-86
2023/03/06 02:14:41;;;;;;;34.00;31.00;;;;;;;-1.60;95.05;96866.77;106562;1286;23379;-86
2023/03/06 02:17:12;;;;;;;37.00;33.60;;;;;;;-1.57;95.16;96863.79;106589;1286;24296;-86
2023/03/06 02:19:52;;;;;;;39.40;35.70;;;;;;;-1.55;95.83;96868.52;106585;1287;22784;-86
2023/03/06 02:22:24;;;;;;;40.10;36.50;;;;;;;-1.58;95.85;96865.57;106605;1286;22550;-86
2023/03/06 02:25:03;;;;;;;40.30;36.40;;;;;;;-1.63;95.76;96862.25;107398;1287;22532;-85
2023/03/06 02:27:33;;;;;;;40.50;36.70;;;;;;;-1.62;95.84;96856.45;106967;1286;22564;-85
2023/03/06 02:30:06;;;;;;;42.00;38.10;;;;;;;-1.61;95.61;96855.51;106595;1287;25486;-85
2023/03/06 02:32:34;;;;;;;40.00;36.30;;;;;;;-1.56;95.61;96850.23;106653;1286;23400;-86
2023/03/06 02:35:03;;;;;;;41.70;38.10;;;;;;;-1.50;95.50;96852.94;106794;1287;22669;-85
2023/03/06 02:37:31;;;;;;;43.90;40.00;;;;;;;-1.47;95.39;96856.89;107514;1286;22646;-85
2023/03/06 02:40:28;;;;;;;48.10;44.00;;;;;;;-1.48;95.70;96859.89;107697;1286;22830;-84
2023/03/06 02:42:57;;;;;;;49.40;43.50;;;;;;;-1.49;95.98;96855.64;107828;1287;22535;-86
2023/03/06 02:45:37;;;;;;;50.20;45.50;;;;;;;-1.50;96.12;96851.25;107583;1286;22548;-85
2023/03/06 02:48:06;;;;;;;47.50;43.10;;;;;;;-1.48;96.13;96844.46;107357;1286;22526;-85
2023/03/06 02:50:34;;;;;;;46.00;41.70;;;;;;;-1.46;96.08;96845.42;107457;1286;22495;-87
2023/03/06 02:53:03;;;;;;;51.30;46.70;;;;;;;-1.42;96.02;96842.79;107542;1286;22501;-85
2023/03/06 02:55:31;;;;;;;56.40;51.50;;;;;;;-1.39;96.11;96841.77;107628;1286;22503;-85
2023/03/06 02:58:01;;;;;;;56.30;51.60;;;;;;;-1.41;96.26;96839.72;107419;1286;22833;-85
2023/03/06 03:00:30;;;;;;;56.30;51.30;;;;;;;-1.41;96.24;96840.11;107742;1287;22574;-84
2023/03/06 03:03:27;;;;;;;52.00;47.50;;;;;;;-1.36;96.32;96840.35;107750;1287;22491;-85
2023/03/06 03:05:59;;;;;;;52.80;47.90;;;;;;;-1.30;95.98;96843.38;107553;1287;22992;-84
2023/03/06 03:08:30;;;;;;;51.80;47.30;;;;;;;-1.24;95.98;96850.16;107083;1287;24196;-85
2023/03/06 03:11:05;;;;;;;57.20;52.20;;;;;;;-1.20;96.28;96851.79;107070;1286;22708;-85
2023/03/06 03:13:38;;;;;;;60.20;54.80;;;;;;;-1.21;96.29;96850.30;107321;1287;24120;-84
2023/03/06 03:16:12;;;;;;;63.90;58.40;;;;;;;-1.23;96.09;96848.16;106842;1287;22549;-85
2023/03/06 03:18:46;;;;;;;64.10;58.60;;;;;;;-1.26;96.34;96845.70;107030;1281;23954;-85
2023/03/06 03:21:17;;;;;;;61.70;56.00;;;;;;;-1.28;96.34;96843.14;107033;1286;22607;-84
2023/03/06 03:23:47;;;;;;;64.00;58.10;;;;;;;-1.26;96.41;96844.65;106857;1280;22550;-85
2023/03/06 03:26:18;;;;;;;62.50;56.70;;;;;;;-1.24;96.16;96841.59;106862;1286;25224;-84
2023/03/06 03:28:51;;;;;;;60.40;55.30;;;;;;;-1.19;96.37;96837.90;106728;1287;22528;-84
2023/03/06 03:31:47;;;;;;;64.00;58.40;;;;;;;-1.17;96.57;96835.75;107103;1287;22805;-84
2023/03/06 03:34:15;;;;;;;69.40;62.90;;;;;;;-1.21;96.97;96835.92;107174;1286;22585;-84
2023/03/06 03:36:44;;;;;;;66.00;60.10;;;;;;;-1.27;96.79;96835.54;106963;1286;22661;-88
2023/03/06 03:39:13;;;;;;;64.60;58.70;;;;;;;-1.27;96.73;96835.23;106660;1286;24794;-86
2023/03/06 03:41:41;;;;;;;62.40;57.00;;;;;;;-1.27;96.90;96829.63;106588;1286;25384;-85
2023/03/06 03:44:09;;;;;;;61.30;55.90;;;;;;;-1.22;96.95;96827.34;106532;1287;24394;-85
2023/03/06 03:46:38;;;;;;;67.10;61.20;;;;;;;-1.18;96.93;96826.44;106592;1287;22655;-86
2023/03/06 03:49:10;;;;;;;67.80;61.80;;;;;;;-1.19;96.75;96824.04;106461;1287;22658;-85
2023/03/06 03:51:38;;;;;;;68.60;62.70;;;;;;;-1.22;96.79;96826.17;106590;1281;22570;-86
2023/03/06 03:58:52;;;;;;;70.50;64.10;;;;;;;-1.25;96.98;96817.11;106647;1287;22494;-84
2023/03/06 04:01:21;;;;;;;64.80;59.10;;;;;;;-1.24;97.00;96811.09;106707;1286;22493;-87
2023/03/06 04:03:49;;;;;;;67.20;61.10;;;;;;;-1.24;97.23;96807.92;108863;1287;23917;-85
2023/03/06 04:06:18;;;;;;;68.90;62.60;;;;;;;-1.24;97.18;96812.58;108656;1287;22810;-86
2023/03/06 04:08:47;;;;;;;73.90;67.30;;;;;;;-1.26;97.21;96808.91;108208;1287;22619;-85
2023/03/06 04:11:16;;;;;;;70.80;64.00;;;;;;;-1.24;97.36;96809.56;107155;1286;22580;-87
2023/03/06 04:13:44;;;;;;;69.80;63.20;;;;;;;-1.23;97.16;96809.05;108035;1286;22562;-85
2023/03/06 04:21:04;;;;;;;61.80;56.20;;;;;;;-1.15;97.24;96808.81;106899;1286;22501;-86
2023/03/06 04:23:33;;;;;;;71.40;64.70;;;;;;;-1.18;97.45;96807.23;108321;1286;22550;-84
2023/03/06 04:26:02;;;;;;;72.00;65.70;;;;;;;-1.22;97.47;96804.23;108655;1286;25284;-84
2023/03/06 04:28:30;;;;;;;63.60;57.80;;;;;;;-1.24;97.89;96804.42;108781;1286;22576;-83
2023/03/06 04:30:59;;;;;;;65.20;59.30;;;;;;;-1.28;98.02;96803.91;108976;1286;22556;-83
2023/03/06 04:38:13;;;;;;;59.00;53.80;;;;;;;-1.26;97.71;96797.07;106573;1286;22660;-84
2023/03/06 04:40:42;;;;;;;66.70;60.40;;;;;;;-1.28;98.10;96799.65;106528;1287;22530;-85
2023/03/06 04:43:12;;;;;;;60.20;54.70;;;;;;;-1.31;98.01;96798.77;106547;1286;22537;-83
2023/03/06 04:45:40;;;;;;;60.00;54.50;;;;;;;-1.32;98.24;96796.95;106533;1278;25435;-85
2023/03/06 04:48:13;;;;;;;55.40;50.40;;;;;;;-1.32;98.08;96795.84;106505;1286;25265;-85
2023/03/06 04:55:28;;;;;;;53.40;48.70;;;;;;;-1.31;97.88;96795.64;107582;1286;22520;-89
2023/03/06 04:57:57;;;;;;;60.10;54.60;;;;;;;-1.37;97.98;96790.26;106969;1287;22632;-90
2023/03/06 05:00:30;;;;;;;56.30;50.60;;;;;;;-1.38;97.81;96792.79;106752;1279;22604;-90
2023/03/06 05:03:01;;;;;;;52.00;47.60;;;;;;;-1.38;97.72;96790.19;107514;1286;25427;-90
2023/03/06 05:05:29;;;;;;;59.70;54.40;;;;;;;-1.41;97.70;96784.08;107478;1286;22657;-90
2023/03/06 05:07:57;;;;;;;64.30;58.60;;;;;;;-1.43;97.63;96789.86;107583;1287;23905;-87
2023/03/06 05:10:25;;;;;;;66.80;60.90;;;;;;;-1.45;97.65;96788.47;107001;1286;25883;-89
2023/03/06 05:12:53;;;;;;;54.70;49.70;;;;;;;-1.45;97.75;96787.09;108201;1287;22579;-90
2023/03/06 05:15:22;;;;;;;54.80;49.90;;;;;;;-1.44;97.88;96788.16;108872;1284;22553;-90
2023/03/06 05:22:00;;;;;;;48.80;44.40;;;;;;;-1.31;97.36;96789.88;108511;1283;22689;-92
2023/03/06 05:24:29;;;;;;;50.90;46.40;;;;;;;-1.30;97.48;96792.96;108216;1286;22955;-86
2023/03/06 05:26:58;;;;;;;51.70;47.00;;;;;;;-1.29;97.59;96791.65;107233;1286;24225;-87
2023/03/06 05:29:45;;;;;;;57.00;51.90;;;;;;;-1.25;97.77;96791.64;106799;1283;22634;-89
2023/03/06 05:32:15;;;;;;;57.20;52.30;;;;;;;-1.24;97.53;96786.52;106842;1286;22558;-85
2023/03/06 05:34:47;;;;;;;56.40;51.40;;;;;;;-1.22;97.62;96780.98;106751;1286;23392;-86
2023/03/06 05:37:15;;;;;;;54.20;49.50;;;;;;;-1.19;97.63;96779.90;106620;1284;22567;-83
2023/03/06 05:39:43;;;;;;;53.00;48.20;;;;;;;-1.14;97.36;96777.67;106679;1288;24318;-91
2023/03/06 05:42:11;;;;;;;58.30;53.20;;;;;;;-1.08;97.30;96777.56;106631;1270;23967;-90
2023/03/06 05:44:40;;;;;;;56.60;51.60;;;;;;;-1.03;97.29;96777.98;106476;1288;22662;-88
2023/03/06 05:47:10;;;;;;;59.60;54.40;;;;;;;-1.03;97.31;96780.30;106790;1288;25246;-88
2023/03/06 05:49:38;;;;;;;54.20;49.40;;;;;;;-1.05;97.26;96779.49;107841;1288;24343;-90
2023/03/06 05:52:07;;;;;;;50.00;45.60;;;;;;;-1.09;97.21;96781.58;107089;1288;22516;-90
2023/03/06 05:54:36;;;;;;;48.50;44.30;;;;;;;-1.10;97.22;96784.90;107406;1288;23460;-90
2023/03/06 05:57:05;;;;;;;47.80;43.70;;;;;;;-1.12;97.12;96781.23;107746;1288;22641;-89
2023/03/06 05:59:33;;;;;;;53.90;49.30;;;;;;;-1.06;97.29;96780.91;107319;1288;25548;-89
2023/03/06 06:02:02;;;;;;;56.60;51.70;;;;;;;-0.97;97.35;96775.27;107848;1288;22536;-87
2023/03/06 06:04:31;;;;;;;61.90;56.50;;;;;;;-0.90;97.58;96770.95;107610;1288;23161;-84
2023/03/06 06:07:00;;;;;;;67.50;61.90;;;;;;;-0.87;97.71;96765.30;107752;1288;22568;-86
2023/03/06 06:09:29;;;;;;;62.80;57.10;;;;;;;-0.81;97.66;96767.68;108087;1288;22581;-86
2023/03/06 06:12:00;;;;;;;56.90;51.70;;;;;;;-0.75;97.60;96769.89;108209;1288;22560;-86
2023/03/06 06:14:32;;;;;;;58.70;53.00;;;;;;;-0.65;97.63;96770.60;108345;1288;22569;-87
2023/03/06 06:17:06;;;;;;;75.30;67.20;;;;;;;-0.55;97.54;96776.59;108058;1286;22546;-89
2023/03/06 06:19:34;;;;;;;65.70;59.30;;;;;;;-0.47;97.80;96774.31;107983;1288;22533;-89
2023/03/06 06:22:03;;;;;;;69.20;62.30;;;;;;;-0.36;97.92;96774.81;107832;1288;22558;-91
2023/03/06 06:24:31;;;;;;;78.10;70.00;;;;;;;-0.28;98.03;96772.20;108966;1288;22558;-89
2023/03/06 06:27:00;;;;;;;69.50;62.50;;;;;;;-0.20;97.82;96778.98;109090;1288;22596;-88
2023/03/06 06:29:31;;;;;;;62.40;56.50;;;;;;;-0.12;97.76;96770.96;109269;1288;22574;-88
2023/03/06 06:32:00;;;;;;;60.00;54.20;;;;;;;-0.02;97.59;96768.25;107987;1288;25503;-89
2023/03/06 06:34:29;;;;;;;62.90;56.80;;;;;;;0.05;97.33;96772.05;107550;1288;24230;-90
2023/03/06 06:36:58;;;;;;;61.90;56.20;;;;;;;0.09;97.28;96774.39;108738;1288;25484;-89
2023/03/06 06:39:29;;;;;;;63.50;57.90;;;;;;;0.17;97.64;96784.86;108697;1288;22482;-90
2023/03/06 06:41:58;;;;;;;60.00;54.60;;;;;;;0.22;97.62;96779.58;108473;1288;23043;-87
2023/03/06 06:44:50;;;;;;;53.50;48.50;;;;;;;0.30;97.61;96776.75;108244;1288;22549;-89
2023/03/06 06:47:18;;;;;;;47.00;42.60;;;;;;;0.40;97.67;96775.46;108463;1288;22491;-90
2023/03/06 06:49:55;;;;;;;49.40;45.00;;;;;;;0.49;97.38;96777.13;108657;1288;25225;-89
2023/03/06 06:52:27;;;;;;;50.60;45.90;;;;;;;0.55;97.20;96776.23;108506;1288;22531;-88
2023/03/06 06:54:56;;;;;;;57.20;51.80;;;;;;;0.60;97.03;96779.27;108709;1288;22492;-88
2023/03/06 06:57:25;;;;;;;116.30;102.60;;;;;;;0.60;96.88;96775.02;108246;1288;22506;-88
2023/03/06 06:59:53;;;;;;;65.00;59.00;;;;;;;0.52;96.56;96779.15;107949;1277;22581;-87
2023/03/06 07:02:22;;;;;;;59.40;53.80;;;;;;;0.47;96.82;96774.84;107991;1284;22551;-89
2023/03/06 07:05:41;;;;;;;53.20;48.20;;;;;;;0.46;96.57;96781.94;107878;1288;22524;-89
2023/03/06 07:08:10;;;;;;;53.30;48.40;;;;;;;0.48;96.70;96786.50;107494;1273;22527;-88
2023/03/06 07:10:38;;;;;;;62.50;56.00;;;;;;;0.48;96.19;96783.64;107688;1288;25543;-89
2023/03/06 07:13:07;;;;;;;67.20;60.80;;;;;;;0.41;95.89;96785.11;107219;1288;22783;-89
2023/03/06 07:15:37;;;;;;;123.80;72.50;;;;;;;0.37;96.02;96783.45;107056;1288;25543;-90
2023/03/06 07:18:05;;;;;;;61.80;56.40;;;;;;;0.35;95.75;96781.80;107300;1288;22558;-89
2023/03/06 07:20:33;;;;;;;57.30;52.20;;;;;;;0.30;95.16;96785.82;107701;1288;22499;-89
2023/03/06 07:23:01;;;;;;;51.10;46.70;;;;;;;0.29;95.40;96784.91;107314;1272;22546;-89
2023/03/06 07:25:32;;;;;;;54.40;49.70;;;;;;;0.33;95.03;96786.83;107062;1288;22652;-89
2023/03/06 07:28:00;;;;;;;56.90;51.80;;;;;;;0.32;94.68;96782.96;107198;1288;22548;-88
2023/03/06 07:30:29;;;;;;;53.80;49.20;;;;;;;0.33;95.05;96785.02;107518;1288;22562;-88
2023/03/06 07:33:25;;;;;;;57.30;52.00;;;;;;;0.34;94.40;96790.96;107151;1288;22535;-89
2023/03/06 07:35:53;;;;;;;57.00;52.10;;;;;;;0.32;93.65;96792.39;107135;1288;23642;-88
2023/03/06 07:38:22;;;;;;;51.80;47.10;;;;;;;0.33;93.76;96794.26;107025;1288;22582;-88
2023/03/06 07:40:56;;;;;;;56.40;51.60;;;;;;;0.37;93.93;96794.42;106926;1288;25309;-88
2023/03/06 07:43:25;;;;;;;56.70;51.90;;;;;;;0.41;94.15;96795.50;106995;1288;23968;-88
2023/03/06 07:45:59;;;;;;;60.90;55.90;;;;;;;0.44;94.21;96797.48;106822;1266;22476;-88
2023/03/06 07:48:28;;;;;;;57.80;52.40;;;;;;;0.47;93.91;96797.95;107026;1288;22587;-88
2023/03/06 07:50:56;;;;;;;43.30;39.60;;;;;;;0.53;93.52;96796.27;107016;1284;22542;-88
2023/03/06 07:53:25;;;;;;;49.70;45.30;;;;;;;0.55;93.13;96794.27;107153;1288;22576;-87
2023/03/06 07:55:54;;;;;;;44.80;40.80;;;;;;;0.60;93.29;96789.23;106997;1288;23328;-88
2023/03/06 07:58:23;;;;;;;43.60;39.90;;;;;;;0.67;93.09;96787.98;106935;1288;22551;-88
2023/03/06 08:00:52;;;;;;;69.20;63.10;;;;;;;0.73;92.95;96790.44;107207;1288;22535;-90
2023/03/06 08:03:22;;;;;;;67.70;61.20;;;;;;;0.83;92.98;96795.34;108010;1287;22560;-89
2023/03/06 08:05:50;;;;;;;86.10;77.80;;;;;;;0.94;92.13;96800.33;107552;1288;25243;-89
2023/03/06 08:08:18;;;;;;;52.40;47.80;;;;;;;1.03;92.55;96799.91;107466;1288;23283;-89
2023/03/06 08:10:47;;;;;;;44.40;40.50;;;;;;;1.11;91.81;96797.91;107058;1288;22616;-89
2023/03/06 08:17:28;;;;;;;45.60;41.80;;;;;;;1.21;90.43;96801.15;107238;1284;22545;-89
2023/03/06 08:19:56;;;;;;;48.50;44.40;;;;;;;1.31;90.88;96801.48;107029;1288;22534;-91
2023/03/06 08:22:25;;;;;;;46.50;42.70;;;;;;;1.47;90.86;96801.14;107177;1288;22545;-91
2023/03/06 08:24:55;;;;;;;44.50;40.70;;;;;;;1.54;89.62;96796.89;106400;1274;22561;-90
2023/03/06 08:27:23;;;;;;;53.30;48.90;;;;;;;1.58;89.73;96796.20;106430;1286;24322;-90
2023/03/06 08:29:52;;;;;;;39.10;35.80;;;;;;;1.67;89.27;96796.92;106423;1284;22786;-90
2023/03/06 08:32:21;;;;;;;39.70;36.30;;;;;;;1.69;87.93;96800.48;107693;1288;23894;-90
2023/03/06 08:34:50;;;;;;;37.80;34.50;;;;;;;1.67;89.27;96794.54;106585;1288;23922;-90
2023/03/06 08:37:18;;;;;;;38.90;35.50;;;;;;;1.62;87.09;96780.52;106236;1288;24394;-90
2023/03/06 08:39:47;;;;;;;37.90;34.80;;;;;;;1.73;86.97;96803.08;106348;1281;22565;-89
2023/03/06 08:42:15;;;;;;;33.90;30.90;;;;;;;1.81;87.54;96802.31;106300;1279;22544;-89
2023/03/06 08:44:44;;;;;;;28.90;26.10;;;;;;;1.92;86.53;96800.91;106250;1288;22661;-89
2023/03/06 08:47:12;;;;;;;32.30;29.40;;;;;;;2.04;86.95;96804.66;106312;1288;25545;-88
2023/03/06 08:49:40;;;;;;;30.30;27.60;;;;;;;2.15;86.97;96802.71;108346;1288;22597;-90
2023/03/06 08:52:09;;;;;;;34.20;31.10;;;;;;;2.25;86.59;96803.68;106371;1288;25587;-90
2023/03/06 08:54:38;;;;;;;27.70;25.10;;;;;;;2.37;85.73;96806.88;106455;1288;22655;-90
2023/03/06 08:57:08;;;;;;;28.60;26.10;;;;;;;2.37;84.15;96809.05;106596;1287;24802;-91
2023/03/06 08:59:36;;;;;;;23.00;21.00;;;;;;;2.30;83.37;96814.13;106373;1288;25212;-90
2023/03/06 09:02:06;;;;;;;22.90;20.70;;;;;;;2.27;83.79;96809.15;106556;1288;22653;-90
2023/03/06 09:04:34;;;;;;;20.70;18.80;;;;;;;2.37;83.94;96807.99;106463;1288;22813;-91
2023/03/06 09:07:03;;;;;;;21.50;19.60;;;;;;;2.46;83.74;96812.42;106481;1288;22775;-92
2023/03/06 09:09:32;;;;;;;20.50;18.60;;;;;;;2.57;81.94;96810.20;106768;1288;22575;-90
2023/03/06 09:12:01;;;;;;;20.60;18.80;;;;;;;2.60;82.74;96816.45;107024;1288;23289;-91
2023/03/06 09:14:30;;;;;;;19.60;17.80;;;;;;;2.70;82.31;96817.46;107236;1288;22562;-92
2023/03/06 09:16:58;;;;;;;22.50;20.60;;;;;;;2.81;82.04;96816.29;107197;1288;25965;-91
2023/03/06 09:19:27;;;;;;;24.80;22.40;;;;;;;2.89;80.79;96813.09;107120;1288;23835;-91
2023/03/06 09:21:59;;;;;;;21.80;19.90;;;;;;;2.89;80.92;96815.09;106593;1282;22550;-91
2023/03/06 09:24:28;;;;;;;22.00;19.90;;;;;;;2.89;80.65;96819.98;106473;1288;22657;-91
2023/03/06 09:26:57;;;;;;;23.60;21.60;;;;;;;2.89;78.87;96815.07;106447;1288;25308;-92
2023/03/06 09:29:25;;;;;;;22.10;20.20;;;;;;;2.85;79.01;96813.83;109148;1288;22550;-90
2023/03/06 09:31:54;;;;;;;20.00;18.10;;;;;;;2.90;79.23;96816.98;109558;1288;22562;-89
2023/03/06 09:34:22;;;;;;;21.70;19.70;;;;;;;2.92;78.37;96817.92;109594;1269;22571;-91
2023/03/06 09:36:50;;;;;;;22.40;20.30;;;;;;;2.93;78.71;96814.77;108732;1288;25321;-89
2023/03/06 09:39:25;;;;;;;27.60;25.10;;;;;;;3.03;77.57;96813.98;108243;1288;22550;-91
2023/03/06 09:41:56;;;;;;;22.60;20.50;;;;;;;3.14;77.73;96810.80;108339;1288;22545;-89
2023/03/06 09:44:29;;;;;;;23.80;21.40;;;;;;;3.29;78.31;96807.30;107877;1288;22794;-89
2023/03/06 09:47:19;;;;;;;31.20;28.30;;;;;;;3.46;78.34;96801.98;107357;1288;24779;-89
2023/03/06 09:49:54;;;;;;;21.20;19.30;;;;;;;3.60;77.44;96802.35;106783;1288;24261;-90
2023/03/06 09:52:28;;;;;;;22.10;20.10;;;;;;;3.55;75.62;96801.33;106648;1288;24278;-89
2023/03/06 09:55:08;;;;;;;33.40;30.50;;;;;;;3.52;76.58;96797.20;106443;1270;25274;-89
2023/03/06 09:57:41;;;;;;;25.90;23.50;;;;;;;3.64;77.02;96792.83;106377;1288;23811;-92
2023/03/06 10:00:34;;;;;;;25.40;23.20;;;;;;;3.70;75.99;96785.90;106946;1288;25901;-92
2023/03/06 10:06:52;;;;;;;;;;;;;;;3.84;73.62;96791.83;106536;1288;22462;-90
2023/03/06 10:09:42;;;;;;;21.20;19.30;;;;;;;3.80;73.20;96790.76;106203;1288;22504;-90
2023/03/06 10:12:24;;;;;;;25.10;22.80;;;;;;;3.81;73.52;96786.21;106419;1288;25308;-92
2023/03/06 10:15:12;;;;;;;21.90;19.90;;;;;;;3.94;72.92;96786.14;106419;1288;25361;-92
2023/03/06 10:17:42;;;;;;;17.70;15.90;;;;;;;4.03;71.86;96779.74;106639;1288;23863;-92
2023/03/06 10:20:22;;;;;;;15.90;14.40;;;;;;;4.09;71.13;96779.63;106708;1284;25254;-93
2023/03/06 10:23:00;;;;;;;16.30;14.90;;;;;;;4.17;71.02;96780.24;106524;1287;188890;-91
2023/03/06 10:25:48;;;;;;;16.60;15.00;;;;;;;4.27;72.57;96771.85;106569;1288;22547;-93
2023/03/06 10:28:28;;;;;;;16.50;15.00;;;;;;;4.39;69.83;96772.98;106555;1288;22588;-92
2023/03/06 10:31:18;;;;;;;14.90;13.50;;;;;;;4.43;69.89;96769.63;106627;1288;22526;-92
2023/03/06 10:38:30;;;;;;;16.50;14.60;;;;;;;4.48;69.44;96762.15;107590;1278;23886;-92
2023/03/06 10:41:11;;;;;;;;;;;;;;;4.55;69.34;96758.15;107640;1288;22480;-92
2023/03/06 10:43:42;;;;;;;11.40;10.30;;;;;;;4.60;68.05;96757.84;107209;1288;22531;-91
2023/03/06 10:49:33;;;;;;;10.30;9.00;;;;;;;4.71;65.25;96753.35;107819;1288;25315;-94
2023/03/06 10:54:48;;;;;;;12.40;11.30;;;;;;;4.71;63.49;96741.19;108983;1285;24084;-94
2023/03/06 11:02:36;;;;;;;15.10;13.50;;;;;;;4.88;63.38;96736.72;107488;1289;22709;-92
2023/03/06 11:05:17;;;;;;;14.70;13.30;;;;;;;4.99;64.58;96725.70;107749;1289;22690;-92
2023/03/06 11:08:21;;;;;;;15.90;14.40;;;;;;;5.15;63.63;96725.40;107669;1289;22468;-91
2023/03/06 11:11:01;;;;;;;14.50;13.10;;;;;;;5.11;60.68;96734.60;108399;1289;22681;-90
2023/03/06 11:13:39;;;;;;;9.10;8.20;;;;;;;5.02;59.74;96736.55;107546;1289;22599;-91
2023/03/06 11:16:31;;;;;;;13.20;12.00;;;;;;;4.98;59.72;96726.02;107242;1289;22590;-90
2023/03/06 11:19:09;;;;;;;12.80;11.30;;;;;;;5.03;59.27;96724.16;107001;1273;24264;-93
2023/03/06 11:21:39;;;;;;;11.50;10.40;;;;;;;5.14;59.19;96723.71;107683;1289;22568;-90
2023/03/06 11:24:20;;;;;;;12.10;9.80;;;;;;;5.21;58.35;96727.65;108334;1289;22675;-90
2023/03/06 11:27:07;;;;;;;11.30;10.20;;;;;;;5.15;57.73;96731.22;107989;1273;22533;-90
2023/03/06 11:29:42;;;;;;;10.20;9.20;;;;;;;5.11;58.28;96720.13;106600;1289;25389;-91
2023/03/06 11:32:19;;;;;;;10.80;9.80;;;;;;;5.23;57.97;96718.61;106684;1289;22541;-92
2023/03/06 11:35:04;;;;;;;10.50;9.50;;;;;;;5.23;57.29;96713.10;106642;1289;22582;-92
2023/03/06 11:37:45;;;;;;;12.20;11.10;;;;;;;5.20;58.00;96709.45;106453;1289;23025;-91
2023/03/06 11:40:23;;;;;;;16.20;14.50;;;;;;;5.19;58.01;96699.91;106373;1287;23410;-92
2023/03/06 11:48:02;;;;;;;15.40;13.70;;;;;;;5.03;58.81;96695.64;106495;1289;25302;-90
2023/03/06 11:50:38;;;;;;;12.90;11.70;;;;;;;5.18;59.38;96687.33;106512;1268;24214;-91
2023/03/06 11:53:14;;;;;;;12.90;11.70;;;;;;;5.30;59.38;96685.36;106371;1284;22543;-91
2023/03/06 11:56:00;;;;;;;12.20;11.00;;;;;;;5.33;57.99;96688.14;106442;1289;22533;-91
2023/03/06 11:58:33;;;;;;;13.50;10.70;;;;;;;5.30;59.00;96679.92;106465;1289;22551;-90
2023/03/06 12:01:12;;;;;;;10.10;9.10;;;;;;;5.32;58.61;96679.71;106404;1289;22632;-90
2023/03/06 12:08:18;;;;;;;14.80;11.90;;;;;;;5.12;57.63;96665.71;107552;1289;22534;-92
2023/03/06 12:10:56;;;;;;;26.80;15.60;;;;;;;5.05;57.50;96663.21;106514;1285;22615;-89
2023/03/06 12:13:55;;;;;;;45.30;20.00;;;;;;;4.99;57.50;96663.67;106808;1289;22669;-90
2023/03/06 12:17:04;;;;;;;35.50;22.90;;;;;;;4.92;57.82;96659.67;106340;1286;22534;-91
2023/03/06 12:19:45;;;;;;;15.50;12.80;;;;;;;4.81;57.14;96661.55;106355;1289;23913;-91
2023/03/06 12:22:32;;;;;;;20.70;16.30;;;;;;;4.71;57.12;96657.98;106387;1289;26634;-91
2023/03/06 12:25:29;;;;;;;11.60;10.50;;;;;;;4.65;57.44;96650.45;106410;1289;25311;-90
2023/03/06 12:32:33;;;;;;;13.60;12.20;;;;;;;4.72;59.34;96637.16;106260;1289;22693;-91
2023/03/06 12:35:12;;;;;;;18.70;15.60;;;;;;;4.77;58.85;96635.16;106337;1289;22548;-91
2023/03/06 12:37:40;;;;;;;14.80;11.70;;;;;;;4.76;58.53;96630.00;106460;1289;22824;-92
2023/03/06 12:40:38;;;;;;;13.10;11.70;;;;;;;4.73;58.42;96625.30;107462;1288;22575;-91
2023/03/06 12:43:19;;;;;;;17.50;15.00;;;;;;;4.66;58.56;96626.58;106342;1288;25956;-90
2023/03/06 12:46:27;;;;;;;13.00;11.80;;;;;;;4.59;58.10;96628.08;106764;1289;25438;-90
2023/03/06 12:49:25;;;;;;;13.60;12.20;;;;;;;4.49;58.83;96622.79;107219;1284;22722;-90
2023/03/06 12:52:03;;;;;;;14.30;12.80;;;;;;;4.45;58.63;96620.23;106290;1288;22534;-92
2023/03/06 12:54:36;;;;;;;14.00;10.00;;;;;;;4.42;58.51;96620.33;106666;1288;22659;-91
2023/03/06 12:57:07;;;;;;;13.60;12.00;;;;;;;4.37;58.17;96617.95;106408;1285;24206;-89
2023/03/06 12:59:36;;;;;;;12.70;11.40;;;;;;;4.36;58.17;96617.34;106317;1289;22545;-90